Latest Coastal Weather Observations for Hobart

IDT60701

Issued at 1:55 pm EST Friday 25 April 2014 (issued every 10 minutes, with the page automatically refreshed every 10 minutes)

About coastal observations | Map of coastal stations | Coastal observations for TAS | Marine services | Other Formats
Station Details ID: 094029 Name: HOBART (ELLERSLIE ROAD) Lat: -42.89 Lon: 147.33 Height: 50.5 m
Data from the previous 72 hours. | See also: Recent months at Hobart
Date/Time
EST
Temp

°C
Wind Pressure Rain
since 9am
mm
Weather Cloud Vis
km
Sea
Height
m
Swell
Dir
 
Speed
knots
Gust
knots
hPa Trend Height
m
Period
s
Dir
25/01:30pm 15.3 NNW 13 22 1014.0 - 0.2 - - - - - - -
25/01:00pm 14.5 NW 12 21 1014.6 - 0.2 - - - - - - -
25/12:30pm 13.9 NW 12 18 1015.3 - 0.2 - - - - - - -
25/12:00pm 13.5 WNW 11 17 1015.8 - 0.2 - - - - - - -
25/11:30am 13.4 NNW 13 21 1016.4 - 0.2 - - - - - - -
25/11:06am 13.8 NNW 15 26 1016.7 - 0.2 - - - - - - -
25/11:00am 14.0 NW 13 26 1016.8 - 0.2 - - - - - - -
25/10:30am 13.2 NW 15 20 1017.2 - 0.2 - - - - - - -
25/10:00am 12.0 N 14 21 1017.4 - 0.0 - - - - - - -
25/09:30am 11.0 NNW 16 23 1017.6 - 0.0 - - - - - - -
25/09:00am 10.1 N 14 20 1017.9 - 1.0 - - - - - - -
25/08:30am 8.5 N 13 19 1018.1 - 1.0 - - - - - - -
25/08:00am 8.6 NNW 17 23 1018.1 - 1.0 - - - - - - -
25/07:45am 8.5 NNW 15 25 1017.9 - 1.0 - - - - - - -
25/07:30am 8.0 N 10 16 1018.2 - 1.0 - - - - - - -
25/07:00am 7.2 NNW 15 21 1017.8 - 1.0 - - - - - - -
25/06:30am 7.3 NNW 16 21 1018.0 - 1.0 - - - - - - -
25/06:00am 7.5 NNW 18 22 1018.0 - 1.0 - - - - - - -
25/05:30am 8.1 NNW 20 26 1017.4 - 1.0 - - - - - - -
25/05:00am 8.2 NNW 17 25 1017.6 - 1.0 - - - - - - -
25/04:30am 8.6 NNW 20 28 1017.3 - 1.0 - - - - - - -
25/04:25am 8.6 NNW 18 28 1017.2 - 1.0 - - - - - - -
25/04:00am 8.4 N 17 23 1017.4 - 1.0 - - - - - - -
25/03:30am 8.1 NNW 17 23 1017.1 - 1.0 - - - - - - -
25/03:17am 8.2 N 16 26 1017.1 - 1.0 - - - - - - -
25/03:15am 8.2 N 17 26 1017.1 - 1.0 - - - - - - -
25/03:00am 7.1 W 5 15 1017.4 - 1.0 - - - - - - -
25/02:30am 8.1 NNW 16 22 1017.1 - 1.0 - - - - - - -
25/02:00am 8.2 NW 9 20 1017.3 - 1.0 - - - - - - -
25/01:30am 8.5 NW 16 23 1017.2 - 1.0 - - - - - - -
25/01:10am 8.6 NW 15 26 1017.1 - 1.0 - - - - - - -
25/01:00am 8.6 NNW 14 23 1017.2 - 1.0 - - - - - - -
25/12:30am 8.6 NW 11 17 1017.3 - 1.0 - - - - - - -
25/12:00am 8.6 NNW 19 27 1017.0 - 1.0 - - - - - - -
 
Date/Time
EST
Temp

°C
Wind Pressure Rain
since 9am
mm
Weather Cloud Vis
km
Sea
Height
m
Swell
Dir
 
Speed
knots
Gust
knots
hPa Trend Height
m
Period
s
Dir
24/11:49pm 8.7 NNW 18 28 1016.9 - 1.0 - - - - - - -
24/11:30pm 8.7 NNW 18 25 1017.0 - 1.0 - - - - - - -
24/11:21pm 8.5 NNW 15 25 1016.9 - 1.0 - - - - - - -
24/11:00pm 8.7 NNW 15 24 1016.9 - 1.0 - - - - - - -
24/10:30pm 8.7 N 14 23 1016.9 - 1.0 - - - - - - -
24/10:26pm 8.7 N 15 23 1016.8 - 1.0 - - - - - - -
24/10:00pm 8.2 NNE 5 9 1016.7 - 1.0 - - - - - - -
24/09:30pm 8.4 NW 4 7 1016.2 - 1.0 - - - - - - -
24/09:00pm 9.0 WSW 6 14 1016.1 - 1.0 - - - - - - -
24/08:30pm 9.0 N 14 22 1015.4 - 1.0 - - - - - - -
24/08:00pm 8.8 NNW 12 16 1015.2 - 1.0 - - - - - - -
24/07:30pm 9.2 NW 12 17 1015.0 - 1.0 - - - - - - -
24/07:00pm 9.4 N 4 9 1014.7 - 1.0 - - - - - - -
24/06:30pm 9.5 NNW 6 9 1014.0 - 1.0 - - - - - - -
24/06:11pm 9.8 W 15 26 1013.4 - 1.0 - - - - - - -
24/06:00pm 9.9 W 12 24 1012.8 - 1.0 - - - - - - -
24/05:30pm 9.3 SW 14 20 1012.3 - 1.0 - - - - - - -
24/05:00pm 9.6 W 4 7 1011.6 - 1.0 - - - - - - -
24/04:30pm 10.5 W 8 16 1011.1 - 1.0 - - - - - - -
24/04:00pm 9.9 SW 15 24 1010.4 - 1.0 - - - - - - -
24/03:36pm 11.0 WSW 15 25 1010.1 - 1.0 - - - - - - -
24/03:30pm 10.8 SW 12 24 1010.0 - 1.0 - - - - - - -
24/03:00pm 11.3 WNW 7 21 1009.8 - 1.0 - - - - - - -
24/02:30pm 10.8 WSW 17 28 1009.0 - 1.0 - - - - - - -
24/02:16pm 10.6 WSW 19 31 1008.9 - 1.0 - - - - - - -
24/02:00pm 8.6 SSW 13 24 1008.8 - 1.0 - - - - - - -
24/01:34pm 11.3 WSW 16 26 1007.9 - 0.8 - - - - - - -
24/01:30pm 11.1 WSW 15 24 1007.7 - 0.8 - - - - - - -
24/01:00pm 8.6 WSW 12 33 1007.8 - 0.8 - - - - - - -
24/12:30pm 12.2 W 15 30 1007.0 - 0.0 - - - - - - -
24/12:00pm 12.1 W 16 31 1006.5 - 0.0 - - - - - - -
24/11:55am 12.1 W 17 27 1006.6 - 0.0 - - - - - - -
24/11:51am 11.7 WSW 20 27 1006.4 - 0.0 - - - - - - -
24/11:30am 12.0 WNW 17 28 1006.2 - 0.0 - - - - - - -
24/11:13am 11.3 NW 17 27 1005.8 - 0.0 - - - - - - -
24/11:00am 10.1 W 12 27 1005.8 - 0.0 - - - - - - -
24/10:44am 10.7 W 20 30 1005.6 - 0.0 - - - - - - -
24/10:30am 10.6 W 7 17 1005.3 - 0.0 - - - - - - -
24/10:06am 11.1 W 16 28 1004.7 - 0.0 - - - - - - -
24/10:00am 11.1 WNW 6 20 1004.5 - 0.0 - - - - - - -
24/09:30am 10.6 SW 6 12 1004.3 - 0.0 - - - - - - -
24/09:00am 10.8 W 6 8 1003.7 - 1.6 - - - - - - -
24/08:30am 10.4 NNW 5 9 1003.2 - 1.6 - - - - - - -
24/08:00am 9.4 NNW 7 11 1002.6 - 1.6 - - - - - - -
24/07:30am 9.7 NNW 11 16 1001.8 - 1.4 - - - - - - -
24/07:00am 10.0 NNW 12 16 1000.3 - 1.4 - - - - - - -
24/06:30am 10.2 N 14 20 1000.2 - 1.4 - - - - - - -
24/06:00am 10.7 NNW 15 26 1000.2 - 1.4 - - - - - - -
24/05:59am 10.5 NNW 15 26 1000.1 - 1.4 - - - - - - -
24/05:30am 10.7 N 12 18 1000.5 - 1.4 - - - - - - -
24/05:00am 11.6 ENE 8 21 999.9 - 1.4 - - - - - - -
24/04:33am 11.5 SW 15 25 999.3 - 1.2 - - - - - - -
24/04:30am 11.8 SW 14 25 999.3 - 1.2 - - - - - - -
24/04:00am 13.4 NNW 5 9 997.8 - 0.0 - - - - - - -
24/03:30am 12.7 NNW 8 11 997.6 - 0.0 - - - - - - -
24/03:00am 12.7 NNW 9 12 998.5 - 0.0 - - - - - - -
24/02:30am 12.9 NNW 10 13 999.4 - 0.0 - - - - - - -
24/02:00am 13.2 N 9 13 1000.4 - 0.0 - - - - - - -
24/01:30am 13.3 NNE 7 11 1001.4 - 0.0 - - - - - - -
24/01:00am 13.5 N 10 17 1002.3 - 0.0 - - - - - - -
24/12:30am 12.8 NNW 10 16 1002.9 - 0.0 - - - - - - -
24/12:00am 12.2 NW 8 11 1003.3 - 0.0 - - - - - - -
 
Date/Time
EST
Temp

°C
Wind Pressure Rain
since 9am
mm
Weather Cloud Vis
km
Sea
Height
m
Swell
Dir
 
Speed
knots
Gust
knots
hPa Trend Height
m
Period
s
Dir
23/11:30pm 12.8 NNW 16 23 1003.5 - 0.0 - - - - - - -
23/11:00pm 12.6 NNW 18 26 1003.5 - 0.0 - - - - - - -
23/10:30pm 12.6 NNW 16 23 1004.2 - 0.0 - - - - - - -
23/10:00pm 12.6 N 8 13 1005.2 - 0.0 - - - - - - -
23/09:30pm 13.0 NNW 11 16 1005.7 - 0.0 - - - - - - -
23/09:00pm 13.0 NNW 11 15 1006.1 - 0.0 - - - - - - -
23/08:30pm 12.8 NNW 6 9 1006.3 - 0.0 - - - - - - -
23/08:00pm 13.5 N 4 7 1006.8 - 0.0 - - - - - - -
23/07:30pm 13.8 N 4 12 1007.0 - 0.0 - - - - - - -
23/07:00pm 14.2 N 8 10 1006.8 - 0.0 - - - - - - -
23/06:30pm 14.8 NNE 7 10 1007.2 - 0.0 - - - - - - -
23/06:00pm 15.0 NNE 4 7 1007.7 - 0.0 - - - - - - -
23/05:30pm 15.5 NW 7 11 1007.6 - 0.0 - - - - - - -
23/05:00pm 16.0 NNW 11 15 1007.5 - 0.0 - - - - - - -
23/04:30pm 16.4 NNW 8 12 1007.9 - 0.0 - - - - - - -
23/04:00pm 16.3 NW 10 15 1008.1 - 0.0 - - - - - - -
23/03:30pm 16.4 NW 11 17 1008.4 - 0.0 - - - - - - -
23/03:00pm 16.5 NW 10 23 1008.7 - 0.0 - - - - - - -
23/02:30pm 16.3 WNW 9 13 1009.1 - 0.0 - - - - - - -
23/02:00pm 16.1 NW 8 13 1009.6 - 0.0 - - - - - - -
23/01:30pm 16.2 NW 12 18 1010.0 - 0.0 - - - - - - -
23/01:00pm 16.3 NW 14 20 1010.4 - 0.0 - - - - - - -
23/12:30pm 16.3 NW 10 14 1010.7 - 0.0 - - - - - - -
23/12:00pm 16.0 NW 12 18 1011.2 - 0.0 - - - - - - -
23/11:30am 15.3 N 8 12 1011.7 - 0.0 - - - - - - -
23/11:00am 14.5 N 9 14 1012.1 - 0.0 - - - - - - -
23/10:30am 14.6 N 5 8 1012.4 - 0.0 - - - - - - -
23/10:00am 13.3 ENE 3 6 1013.1 - 0.0 - - - - - - -
23/09:30am 12.0 N 3 7 1013.7 - 0.0 - - - - - - -
23/09:00am 11.6 N 8 11 1013.9 - 0.0 - - - - - - -
23/08:30am 10.8 NNW 9 12 1014.0 - 0.0 - - - - - - -
23/08:00am 10.6 NW 8 10 1013.9 - 0.0 - - - - - - -
23/07:30am 9.7 NNW 5 6 1013.9 - 0.0 - - - - - - -
23/07:00am 8.7 NNW 8 9 1013.9 - 0.0 - - - - - - -
23/06:30am 8.2 NW 6 7 1013.8 - 0.0 - - - - - - -
23/06:00am 9.4 NNW 6 7 1013.8 - 0.0 - - - - - - -
23/05:30am 9.6 N 6 8 1013.8 - 0.0 - - - - - - -
23/05:00am 10.4 N 8 11 1013.8 - 0.0 - - - - - - -
23/04:30am 10.5 NNW 9 12 1013.6 - 0.0 - - - - - - -
23/04:00am 10.4 NNW 8 13 1013.5 - 0.0 - - - - - - -
23/03:30am 10.8 NNW 8 13 1013.4 - 0.0 - - - - - - -
23/03:00am 10.5 NNW 7 10 1013.3 - 0.0 - - - - - - -
23/02:30am 10.6 NNW 6 10 1013.4 - 0.0 - - - - - - -
23/02:00am 10.9 NNW 9 12 1013.4 - 0.0 - - - - - - -
23/01:30am 11.4 NNW 10 14 1013.3 - 0.0 - - - - - - -
23/01:00am 11.9 NNW 11 16 1013.2 - 0.0 - - - - - - -
23/12:30am 12.1 NNW 11 16 1013.1 - 0.0 - - - - - - -
23/12:00am 12.4 NNW 11 17 1013.1 - 0.0 - - - - - - -
 
Date/Time
EST
Temp

°C
Wind Pressure Rain
since 9am
mm
Weather Cloud Vis
km
Sea
Height
m
Swell
Dir
 
Speed
knots
Gust
knots
hPa Trend Height
m
Period
s
Dir
22/11:30pm 12.5 NNW 10 14 1013.2 - 0.0 - - - - - - -
22/11:00pm 12.6 NNW 12 16 1013.0 - 0.0 - - - - - - -
22/10:30pm 12.5 NNW 12 15 1012.9 - 0.0 - - - - - - -
22/10:00pm 12.8 N 10 14 1013.0 - 0.0 - - - - - - -
22/09:30pm 12.7 N 6 10 1012.9 - 0.0 - - - - - - -
22/09:00pm 13.2 WSW 7 11 1012.4 - 0.0 - - - - - - -
22/08:30pm 13.2 WNW 8 13 1012.0 - 0.0 - - - - - - -
22/08:00pm 13.6 N 7 11 1011.6 - 0.0 - - - - - - -
22/07:30pm 14.0 NNW 8 12 1011.2 - 0.0 - - - - - - -
22/07:00pm 14.1 NW 11 17 1010.9 - 0.0 - - - - - - -
22/06:30pm 14.5 NW 11 17 1010.2 - 0.0 - - - - - - -
22/06:00pm 14.4 NW 8 12 1009.7 - 0.0 - - - - - - -
22/05:30pm 14.6 N 11 15 1009.2 - 0.0 - - - - - - -
22/05:00pm 14.9 NW 9 15 1009.1 - 0.0 - - - - - - -
22/04:30pm 15.4 NW 11 21 1008.9 - 0.0 - - - - - - -
22/04:00pm 15.9 NW 15 23 1008.6 - 0.0 - - - - - - -
22/03:30pm 16.4 NW 13 21 1008.3 - 0.0 - - - - - - -
22/03:00pm 16.8 NW 13 23 1008.4 - 0.0 - - - - - - -
22/02:33pm 17.3 NNW 16 26 1007.9 - 0.0 - - - - - - -
22/02:30pm 17.3 NNW 17 26 1007.9 - 0.0 - - - - - - -
22/02:24pm 17.3 NNW 15 26 1007.7 - 0.0 - - - - - - -
22/02:00pm 17.5 NNW 15 23 1007.6 - 0.0 - - - - - - -

Other Formats:

Comma delimited format used in spreadsheet applications
http://www.bom.gov.au/fwo/IDT60701/IDT60701.94970.axf

JavaScript Object Notation format (JSON) in row-major order
http://www.bom.gov.au/fwo/IDT60701/IDT60701.94970.json